sensor_id;sensor_type;location;lat;lon;timestamp;P1;durP1;ratioP1;P2;durP2;ratioP2
4313;SDS011;2170;48.794;9.182;2023-03-16T00:00:41;15.47;;;13.00;;
4313;SDS011;2170;48.794;9.182;2023-03-16T00:03:28;14.63;;;13.20;;
4313;SDS011;2170;48.794;9.182;2023-03-16T00:06:21;14.10;;;12.87;;
4313;SDS011;2170;48.794;9.182;2023-03-16T00:08:52;15.80;;;14.30;;
4313;SDS011;2170;48.794;9.182;2023-03-16T00:11:25;15.70;;;13.70;;
4313;SDS011;2170;48.794;9.182;2023-03-16T00:14:03;16.77;;;15.17;;
4313;SDS011;2170;48.794;9.182;2023-03-16T00:16:44;17.10;;;15.40;;
4313;SDS011;2170;48.794;9.182;2023-03-16T00:19:26;17.10;;;14.77;;
4313;SDS011;2170;48.794;9.182;2023-03-16T00:22:04;17.83;;;15.30;;
4313;SDS011;2170;48.794;9.182;2023-03-16T00:24:36;17.10;;;15.50;;
4313;SDS011;2170;48.794;9.182;2023-03-16T00:27:10;17.07;;;15.37;;
4313;SDS011;2170;48.794;9.182;2023-03-16T00:29:54;18.27;;;16.33;;
4313;SDS011;2170;48.794;9.182;2023-03-16T00:32:27;19.40;;;16.80;;
4313;SDS011;2170;48.794;9.182;2023-03-16T00:35:07;16.97;;;15.17;;
4313;SDS011;2170;48.794;9.182;2023-03-16T00:37:46;21.37;;;17.17;;
4313;SDS011;2170;48.794;9.182;2023-03-16T00:40:22;17.00;;;15.30;;
4313;SDS011;2170;48.794;9.182;2023-03-16T00:42:51;16.83;;;15.07;;
4313;SDS011;2170;48.794;9.182;2023-03-16T00:45:31;19.23;;;16.63;;
4313;SDS011;2170;48.794;9.182;2023-03-16T00:48:04;21.90;;;17.07;;
4313;SDS011;2170;48.794;9.182;2023-03-16T00:50:32;19.13;;;17.30;;
4313;SDS011;2170;48.794;9.182;2023-03-16T00:53:04;19.97;;;18.00;;
4313;SDS011;2170;48.794;9.182;2023-03-16T00:55:41;19.43;;;17.40;;
4313;SDS011;2170;48.794;9.182;2023-03-16T00:58:35;22.00;;;19.70;;
4313;SDS011;2170;48.794;9.182;2023-03-16T01:01:09;20.70;;;18.03;;
4313;SDS011;2170;48.794;9.182;2023-03-16T01:03:43;19.33;;;17.00;;
4313;SDS011;2170;48.794;9.182;2023-03-16T01:06:18;19.40;;;17.30;;
4313;SDS011;2170;48.794;9.182;2023-03-16T01:08:57;21.73;;;18.60;;
4313;SDS011;2170;48.794;9.182;2023-03-16T01:11:32;19.07;;;16.97;;
4313;SDS011;2170;48.794;9.182;2023-03-16T01:14:00;20.47;;;18.27;;
4313;SDS011;2170;48.794;9.182;2023-03-16T01:16:51;18.10;;;16.23;;
4313;SDS011;2170;48.794;9.182;2023-03-16T01:19:24;19.67;;;17.80;;
4313;SDS011;2170;48.794;9.182;2023-03-16T01:21:53;19.63;;;17.70;;
4313;SDS011;2170;48.794;9.182;2023-03-16T01:24:21;21.20;;;17.37;;
4313;SDS011;2170;48.794;9.182;2023-03-16T01:26:50;21.60;;;19.40;;
4313;SDS011;2170;48.794;9.182;2023-03-16T01:29:40;22.17;;;19.40;;
4313;SDS011;2170;48.794;9.182;2023-03-16T01:32:18;21.47;;;18.77;;
4313;SDS011;2170;48.794;9.182;2023-03-16T01:34:58;20.20;;;17.67;;
4313;SDS011;2170;48.794;9.182;2023-03-16T01:37:34;21.13;;;18.47;;
4313;SDS011;2170;48.794;9.182;2023-03-16T01:40:12;20.63;;;18.43;;
4313;SDS011;2170;48.794;9.182;2023-03-16T01:42:59;20.73;;;18.57;;
4313;SDS011;2170;48.794;9.182;2023-03-16T01:48:42;22.77;;;17.67;;
4313;SDS011;2170;48.794;9.182;2023-03-16T01:51:38;19.57;;;17.60;;
4313;SDS011;2170;48.794;9.182;2023-03-16T01:54:27;20.20;;;18.10;;
4313;SDS011;2170;48.794;9.182;2023-03-16T01:57:01;20.83;;;18.63;;
4313;SDS011;2170;48.794;9.182;2023-03-16T01:59:37;21.57;;;18.67;;
4313;SDS011;2170;48.794;9.182;2023-03-16T02:02:24;23.27;;;19.07;;
4313;SDS011;2170;48.794;9.182;2023-03-16T02:05:03;18.77;;;16.83;;
4313;SDS011;2170;48.794;9.182;2023-03-16T02:07:39;24.60;;;18.20;;
4313;SDS011;2170;48.794;9.182;2023-03-16T02:10:14;20.70;;;18.57;;
4313;SDS011;2170;48.794;9.182;2023-03-16T02:12:52;22.27;;;18.70;;
4313;SDS011;2170;48.794;9.182;2023-03-16T02:15:24;21.27;;;18.80;;
4313;SDS011;2170;48.794;9.182;2023-03-16T02:17:58;21.20;;;18.93;;
4313;SDS011;2170;48.794;9.182;2023-03-16T02:20:32;24.83;;;19.93;;
4313;SDS011;2170;48.794;9.182;2023-03-16T02:23:08;20.27;;;18.17;;
4313;SDS011;2170;48.794;9.182;2023-03-16T02:25:44;21.03;;;18.13;;
4313;SDS011;2170;48.794;9.182;2023-03-16T02:28:25;22.53;;;20.23;;
4313;SDS011;2170;48.794;9.182;2023-03-16T02:33:53;22.83;;;19.13;;
4313;SDS011;2170;48.794;9.182;2023-03-16T02:36:23;21.67;;;19.33;;
4313;SDS011;2170;48.794;9.182;2023-03-16T02:38:57;21.90;;;19.53;;
4313;SDS011;2170;48.794;9.182;2023-03-16T02:41:42;20.23;;;18.13;;
4313;SDS011;2170;48.794;9.182;2023-03-16T02:44:15;22.23;;;18.90;;
4313;SDS011;2170;48.794;9.182;2023-03-16T02:46:55;22.23;;;19.43;;
4313;SDS011;2170;48.794;9.182;2023-03-16T02:49:36;21.63;;;19.53;;
4313;SDS011;2170;48.794;9.182;2023-03-16T02:52:10;20.70;;;18.50;;
4313;SDS011;2170;48.794;9.182;2023-03-16T02:54:43;21.23;;;18.03;;
4313;SDS011;2170;48.794;9.182;2023-03-16T02:57:25;21.00;;;18.80;;
4313;SDS011;2170;48.794;9.182;2023-03-16T02:59:54;20.20;;;18.10;;
4313;SDS011;2170;48.794;9.182;2023-03-16T03:02:36;26.43;;;18.90;;
4313;SDS011;2170;48.794;9.182;2023-03-16T03:05:09;20.77;;;18.67;;
4313;SDS011;2170;48.794;9.182;2023-03-16T03:07:46;20.67;;;18.47;;
4313;SDS011;2170;48.794;9.182;2023-03-16T03:10:23;20.40;;;17.43;;
4313;SDS011;2170;48.794;9.182;2023-03-16T03:13:06;20.70;;;18.47;;
4313;SDS011;2170;48.794;9.182;2023-03-16T03:15:43;18.83;;;16.27;;
4313;SDS011;2170;48.794;9.182;2023-03-16T03:18:33;18.83;;;16.80;;
4313;SDS011;2170;48.794;9.182;2023-03-16T03:21:12;20.43;;;18.20;;
4313;SDS011;2170;48.794;9.182;2023-03-16T03:23:44;18.80;;;16.60;;
4313;SDS011;2170;48.794;9.182;2023-03-16T03:26:16;19.50;;;17.50;;
4313;SDS011;2170;48.794;9.182;2023-03-16T03:28:57;19.13;;;17.03;;
4313;SDS011;2170;48.794;9.182;2023-03-16T03:31:38;21.37;;;17.90;;
4313;SDS011;2170;48.794;9.182;2023-03-16T03:34:13;18.80;;;16.80;;
4313;SDS011;2170;48.794;9.182;2023-03-16T03:39:32;21.83;;;18.17;;
4313;SDS011;2170;48.794;9.182;2023-03-16T03:42:05;22.30;;;17.97;;
4313;SDS011;2170;48.794;9.182;2023-03-16T03:44:40;21.63;;;19.23;;
4313;SDS011;2170;48.794;9.182;2023-03-16T03:47:11;23.10;;;18.53;;
4313;SDS011;2170;48.794;9.182;2023-03-16T03:49:39;21.10;;;18.80;;
4313;SDS011;2170;48.794;9.182;2023-03-16T03:52:08;20.40;;;17.13;;
4313;SDS011;2170;48.794;9.182;2023-03-16T03:54:43;21.23;;;17.30;;
4313;SDS011;2170;48.794;9.182;2023-03-16T03:57:15;19.73;;;17.70;;
4313;SDS011;2170;48.794;9.182;2023-03-16T03:59:54;23.33;;;18.27;;
4313;SDS011;2170;48.794;9.182;2023-03-16T04:02:26;20.40;;;17.40;;
4313;SDS011;2170;48.794;9.182;2023-03-16T04:05:05;21.13;;;17.73;;
4313;SDS011;2170;48.794;9.182;2023-03-16T04:07:36;20.97;;;18.13;;
4313;SDS011;2170;48.794;9.182;2023-03-16T04:10:20;20.33;;;18.00;;
4313;SDS011;2170;48.794;9.182;2023-03-16T04:13:09;19.53;;;16.87;;
4313;SDS011;2170;48.794;9.182;2023-03-16T04:15:41;19.53;;;17.43;;
4313;SDS011;2170;48.794;9.182;2023-03-16T04:18:15;23.20;;;17.93;;
4313;SDS011;2170;48.794;9.182;2023-03-16T04:20:46;18.77;;;16.53;;
4313;SDS011;2170;48.794;9.182;2023-03-16T04:23:31;23.23;;;18.20;;
4313;SDS011;2170;48.794;9.182;2023-03-16T04:26:02;20.03;;;18.00;;
4313;SDS011;2170;48.794;9.182;2023-03-16T04:28:35;19.80;;;16.97;;
4313;SDS011;2170;48.794;9.182;2023-03-16T04:31:08;19.27;;;17.07;;
4313;SDS011;2170;48.794;9.182;2023-03-16T04:33:40;20.17;;;17.43;;
4313;SDS011;2170;48.794;9.182;2023-03-16T04:36:15;19.50;;;17.40;;
4313;SDS011;2170;48.794;9.182;2023-03-16T04:39:00;22.60;;;17.47;;
4313;SDS011;2170;48.794;9.182;2023-03-16T04:41:40;20.10;;;16.67;;
4313;SDS011;2170;48.794;9.182;2023-03-16T04:44:18;19.83;;;17.73;;
4313;SDS011;2170;48.794;9.182;2023-03-16T04:46:59;20.83;;;18.30;;
4313;SDS011;2170;48.794;9.182;2023-03-16T04:49:40;23.30;;;19.03;;
4313;SDS011;2170;48.794;9.182;2023-03-16T04:52:28;21.87;;;19.30;;
4313;SDS011;2170;48.794;9.182;2023-03-16T04:55:12;23.03;;;18.47;;
4313;SDS011;2170;48.794;9.182;2023-03-16T04:57:53;23.40;;;18.63;;
4313;SDS011;2170;48.794;9.182;2023-03-16T05:00:33;22.00;;;19.47;;
4313;SDS011;2170;48.794;9.182;2023-03-16T05:03:15;21.23;;;18.20;;
4313;SDS011;2170;48.794;9.182;2023-03-16T05:05:54;19.90;;;17.87;;
4313;SDS011;2170;48.794;9.182;2023-03-16T05:08:34;23.00;;;19.07;;
4313;SDS011;2170;48.794;9.182;2023-03-16T05:11:10;23.10;;;19.17;;
4313;SDS011;2170;48.794;9.182;2023-03-16T05:13:46;23.07;;;20.10;;
4313;SDS011;2170;48.794;9.182;2023-03-16T05:16:31;22.43;;;20.03;;
4313;SDS011;2170;48.794;9.182;2023-03-16T05:19:01;22.30;;;18.90;;
4313;SDS011;2170;48.794;9.182;2023-03-16T05:21:33;22.07;;;19.67;;
4313;SDS011;2170;48.794;9.182;2023-03-16T05:24:03;21.50;;;18.87;;
4313;SDS011;2170;48.794;9.182;2023-03-16T05:26:36;19.87;;;17.70;;
4313;SDS011;2170;48.794;9.182;2023-03-16T05:29:20;20.27;;;18.17;;
4313;SDS011;2170;48.794;9.182;2023-03-16T05:32:10;20.10;;;18.07;;
4313;SDS011;2170;48.794;9.182;2023-03-16T05:34:47;30.80;;;25.07;;
4313;SDS011;2170;48.794;9.182;2023-03-16T05:37:20;31.40;;;26.20;;
4313;SDS011;2170;48.794;9.182;2023-03-16T05:39:50;26.07;;;20.83;;
4313;SDS011;2170;48.794;9.182;2023-03-16T05:42:31;22.60;;;19.50;;
4313;SDS011;2170;48.794;9.182;2023-03-16T05:45:04;23.47;;;20.30;;
4313;SDS011;2170;48.794;9.182;2023-03-16T05:47:48;21.20;;;18.90;;
4313;SDS011;2170;48.794;9.182;2023-03-16T05:50:25;23.67;;;20.40;;
4313;SDS011;2170;48.794;9.182;2023-03-16T05:53:04;25.70;;;21.20;;
4313;SDS011;2170;48.794;9.182;2023-03-16T05:55:55;24.17;;;19.40;;
4313;SDS011;2170;48.794;9.182;2023-03-16T05:58:32;22.17;;;19.40;;
4313;SDS011;2170;48.794;9.182;2023-03-16T06:01:02;22.87;;;19.33;;
4313;SDS011;2170;48.794;9.182;2023-03-16T06:03:34;24.00;;;20.53;;
4313;SDS011;2170;48.794;9.182;2023-03-16T06:06:04;23.90;;;21.37;;
4313;SDS011;2170;48.794;9.182;2023-03-16T06:08:32;29.40;;;22.23;;
4313;SDS011;2170;48.794;9.182;2023-03-16T06:11:05;26.00;;;22.10;;
4313;SDS011;2170;48.794;9.182;2023-03-16T06:13:38;26.40;;;20.73;;
4313;SDS011;2170;48.794;9.182;2023-03-16T06:16:10;24.67;;;20.13;;
4313;SDS011;2170;48.794;9.182;2023-03-16T06:18:40;21.20;;;18.90;;
4313;SDS011;2170;48.794;9.182;2023-03-16T06:21:20;24.40;;;20.13;;
4313;SDS011;2170;48.794;9.182;2023-03-16T06:24:06;22.13;;;19.77;;
4313;SDS011;2170;48.794;9.182;2023-03-16T06:26:39;26.50;;;21.73;;
4313;SDS011;2170;48.794;9.182;2023-03-16T06:29:09;26.87;;;23.00;;
4313;SDS011;2170;48.794;9.182;2023-03-16T06:37:43;26.97;;;22.07;;
4313;SDS011;2170;48.794;9.182;2023-03-16T06:40:22;29.80;;;22.57;;
4313;SDS011;2170;48.794;9.182;2023-03-16T06:42:50;25.10;;;22.40;;
4313;SDS011;2170;48.794;9.182;2023-03-16T06:45:17;26.93;;;22.10;;
4313;SDS011;2170;48.794;9.182;2023-03-16T06:47:46;28.23;;;21.70;;
4313;SDS011;2170;48.794;9.182;2023-03-16T06:50:21;27.80;;;21.47;;
4313;SDS011;2170;48.794;9.182;2023-03-16T06:52:56;27.70;;;22.07;;
4313;SDS011;2170;48.794;9.182;2023-03-16T06:55:38;28.20;;;21.37;;
4313;SDS011;2170;48.794;9.182;2023-03-16T06:58:16;27.53;;;22.10;;
4313;SDS011;2170;48.794;9.182;2023-03-16T07:00:45;27.80;;;22.03;;
4313;SDS011;2170;48.794;9.182;2023-03-16T07:03:13;54.17;;;40.07;;
4313;SDS011;2170;48.794;9.182;2023-03-16T07:05:55;59.07;;;40.00;;
4313;SDS011;2170;48.794;9.182;2023-03-16T07:08:43;33.47;;;26.67;;
4313;SDS011;2170;48.794;9.182;2023-03-16T07:11:36;26.80;;;21.07;;
4313;SDS011;2170;48.794;9.182;2023-03-16T07:14:19;25.97;;;21.97;;
4313;SDS011;2170;48.794;9.182;2023-03-16T07:16:50;26.40;;;22.20;;
4313;SDS011;2170;48.794;9.182;2023-03-16T07:19:43;24.87;;;19.77;;
4313;SDS011;2170;48.794;9.182;2023-03-16T07:22:15;24.17;;;20.00;;
4313;SDS011;2170;48.794;9.182;2023-03-16T07:27:37;23.83;;;21.23;;
4313;SDS011;2170;48.794;9.182;2023-03-16T07:30:21;24.90;;;20.33;;
4313;SDS011;2170;48.794;9.182;2023-03-16T07:32:50;22.57;;;18.97;;
4313;SDS011;2170;48.794;9.182;2023-03-16T07:35:29;22.50;;;19.33;;
4313;SDS011;2170;48.794;9.182;2023-03-16T07:38:04;22.43;;;18.13;;
4313;SDS011;2170;48.794;9.182;2023-03-16T07:40:34;22.07;;;17.93;;
4313;SDS011;2170;48.794;9.182;2023-03-16T07:43:02;21.87;;;18.10;;
4313;SDS011;2170;48.794;9.182;2023-03-16T07:45:30;24.57;;;20.77;;
4313;SDS011;2170;48.794;9.182;2023-03-16T07:47:59;20.07;;;17.93;;
4313;SDS011;2170;48.794;9.182;2023-03-16T07:50:28;20.40;;;17.87;;
4313;SDS011;2170;48.794;9.182;2023-03-16T07:52:58;20.70;;;18.00;;
4313;SDS011;2170;48.794;9.182;2023-03-16T07:55:29;22.90;;;17.80;;
4313;SDS011;2170;48.794;9.182;2023-03-16T07:57:56;19.57;;;17.40;;
4313;SDS011;2170;48.794;9.182;2023-03-16T08:00:30;19.30;;;17.30;;
4313;SDS011;2170;48.794;9.182;2023-03-16T08:03:03;19.57;;;17.57;;
4313;SDS011;2170;48.794;9.182;2023-03-16T08:05:43;17.63;;;15.80;;
4313;SDS011;2170;48.794;9.182;2023-03-16T08:08:15;19.83;;;16.40;;
4313;SDS011;2170;48.794;9.182;2023-03-16T08:10:49;17.70;;;15.50;;
4313;SDS011;2170;48.794;9.182;2023-03-16T08:13:31;18.03;;;14.30;;
4313;SDS011;2170;48.794;9.182;2023-03-16T08:16:12;17.63;;;15.20;;
4313;SDS011;2170;48.794;9.182;2023-03-16T08:18:40;15.43;;;12.80;;
4313;SDS011;2170;48.794;9.182;2023-03-16T08:21:20;13.97;;;12.43;;
4313;SDS011;2170;48.794;9.182;2023-03-16T08:23:51;16.73;;;13.63;;
4313;SDS011;2170;48.794;9.182;2023-03-16T08:26:32;13.53;;;12.10;;
4313;SDS011;2170;48.794;9.182;2023-03-16T08:29:05;14.17;;;12.67;;
4313;SDS011;2170;48.794;9.182;2023-03-16T08:31:46;15.33;;;13.73;;
4313;SDS011;2170;48.794;9.182;2023-03-16T08:34:26;16.50;;;13.83;;
4313;SDS011;2170;48.794;9.182;2023-03-16T08:37:05;14.90;;;13.50;;
4313;SDS011;2170;48.794;9.182;2023-03-16T08:39:44;15.50;;;13.90;;
4313;SDS011;2170;48.794;9.182;2023-03-16T08:42:18;14.60;;;13.20;;
4313;SDS011;2170;48.794;9.182;2023-03-16T08:45:00;11.50;;;10.40;;
4313;SDS011;2170;48.794;9.182;2023-03-16T08:47:40;18.37;;;12.10;;
4313;SDS011;2170;48.794;9.182;2023-03-16T08:50:14;12.30;;;11.13;;
4313;SDS011;2170;48.794;9.182;2023-03-16T08:52:45;15.70;;;11.33;;
4313;SDS011;2170;48.794;9.182;2023-03-16T08:55:27;12.83;;;10.70;;
4313;SDS011;2170;48.794;9.182;2023-03-16T08:58:14;11.73;;;10.40;;
4313;SDS011;2170;48.794;9.182;2023-03-16T09:03:32;11.40;;;10.30;;
4313;SDS011;2170;48.794;9.182;2023-03-16T09:06:00;10.53;;;9.53;;
4313;SDS011;2170;48.794;9.182;2023-03-16T09:08:29;10.80;;;9.80;;
4313;SDS011;2170;48.794;9.182;2023-03-16T09:11:00;10.23;;;9.23;;
4313;SDS011;2170;48.794;9.182;2023-03-16T09:13:32;11.20;;;10.07;;
4313;SDS011;2170;48.794;9.182;2023-03-16T09:16:10;10.40;;;9.47;;
4313;SDS011;2170;48.794;9.182;2023-03-16T09:18:42;21.97;;;15.37;;
4313;SDS011;2170;48.794;9.182;2023-03-16T09:21:13;15.00;;;12.47;;
4313;SDS011;2170;48.794;9.182;2023-03-16T09:23:52;10.23;;;9.30;;
4313;SDS011;2170;48.794;9.182;2023-03-16T09:26:30;9.67;;;8.77;;
4313;SDS011;2170;48.794;9.182;2023-03-16T09:28:59;10.27;;;9.27;;
4313;SDS011;2170;48.794;9.182;2023-03-16T09:31:33;7.40;;;6.80;;
4313;SDS011;2170;48.794;9.182;2023-03-16T09:36:48;8.37;;;7.60;;
4313;SDS011;2170;48.794;9.182;2023-03-16T09:39:29;8.77;;;8.07;;
4313;SDS011;2170;48.794;9.182;2023-03-16T09:42:07;6.97;;;6.37;;
4313;SDS011;2170;48.794;9.182;2023-03-16T09:44:51;7.80;;;7.00;;
4313;SDS011;2170;48.794;9.182;2023-03-16T09:47:22;7.03;;;6.43;;
4313;SDS011;2170;48.794;9.182;2023-03-16T09:50:01;8.07;;;6.93;;
4313;SDS011;2170;48.794;9.182;2023-03-16T09:52:40;9.40;;;8.37;;
4313;SDS011;2170;48.794;9.182;2023-03-16T09:55:23;8.77;;;7.97;;
4313;SDS011;2170;48.794;9.182;2023-03-16T09:58:16;7.43;;;6.70;;
4313;SDS011;2170;48.794;9.182;2023-03-16T10:00:46;6.57;;;6.07;;
4313;SDS011;2170;48.794;9.182;2023-03-16T10:03:29;7.73;;;7.10;;
4313;SDS011;2170;48.794;9.182;2023-03-16T10:05:59;8.27;;;7.57;;
4313;SDS011;2170;48.794;9.182;2023-03-16T10:08:29;7.50;;;6.80;;
4313;SDS011;2170;48.794;9.182;2023-03-16T10:11:17;7.83;;;7.20;;
4313;SDS011;2170;48.794;9.182;2023-03-16T10:13:51;8.40;;;7.60;;
4313;SDS011;2170;48.794;9.182;2023-03-16T10:16:22;8.37;;;7.67;;
4313;SDS011;2170;48.794;9.182;2023-03-16T10:18:57;10.40;;;8.03;;
4313;SDS011;2170;48.794;9.182;2023-03-16T10:21:27;7.83;;;7.23;;
4313;SDS011;2170;48.794;9.182;2023-03-16T10:24:01;9.60;;;7.57;;
4313;SDS011;2170;48.794;9.182;2023-03-16T10:26:32;8.10;;;7.40;;
4313;SDS011;2170;48.794;9.182;2023-03-16T10:29:02;6.10;;;5.60;;
4313;SDS011;2170;48.794;9.182;2023-03-16T10:31:31;6.10;;;5.60;;
4313;SDS011;2170;48.794;9.182;2023-03-16T10:34:04;6.57;;;5.97;;
4313;SDS011;2170;48.794;9.182;2023-03-16T10:36:37;6.87;;;6.10;;
4313;SDS011;2170;48.794;9.182;2023-03-16T10:39:10;7.80;;;6.83;;
4313;SDS011;2170;48.794;9.182;2023-03-16T10:41:39;7.23;;;6.53;;
4313;SDS011;2170;48.794;9.182;2023-03-16T10:44:09;8.37;;;7.40;;
4313;SDS011;2170;48.794;9.182;2023-03-16T10:46:37;7.10;;;6.50;;
4313;SDS011;2170;48.794;9.182;2023-03-16T10:49:21;6.00;;;4.30;;
4313;SDS011;2170;48.794;9.182;2023-03-16T10:51:51;5.03;;;4.63;;
4313;SDS011;2170;48.794;9.182;2023-03-16T10:54:24;5.53;;;4.00;;
4313;SDS011;2170;48.794;9.182;2023-03-16T10:56:53;4.87;;;4.33;;
4313;SDS011;2170;48.794;9.182;2023-03-16T10:59:26;4.73;;;4.40;;
4313;SDS011;2170;48.794;9.182;2023-03-16T11:01:59;6.27;;;5.70;;
4313;SDS011;2170;48.794;9.182;2023-03-16T11:04:30;10.80;;;6.23;;
4313;SDS011;2170;48.794;9.182;2023-03-16T11:06:58;7.70;;;6.33;;
4313;SDS011;2170;48.794;9.182;2023-03-16T11:09:32;5.70;;;5.20;;
4313;SDS011;2170;48.794;9.182;2023-03-16T11:12:11;15.33;;;5.70;;
4313;SDS011;2170;48.794;9.182;2023-03-16T11:14:41;8.83;;;5.33;;
4313;SDS011;2170;48.794;9.182;2023-03-16T11:17:10;7.90;;;5.93;;
4313;SDS011;2170;48.794;9.182;2023-03-16T11:19:44;8.93;;;3.97;;
4313;SDS011;2170;48.794;9.182;2023-03-16T11:22:23;7.63;;;5.03;;
4313;SDS011;2170;48.794;9.182;2023-03-16T11:24:59;7.20;;;4.60;;
4313;SDS011;2170;48.794;9.182;2023-03-16T11:27:35;4.30;;;3.93;;
4313;SDS011;2170;48.794;9.182;2023-03-16T11:30:07;4.90;;;3.90;;
4313;SDS011;2170;48.794;9.182;2023-03-16T11:32:40;13.53;;;4.90;;
4313;SDS011;2170;48.794;9.182;2023-03-16T11:35:11;5.13;;;4.10;;
4313;SDS011;2170;48.794;9.182;2023-03-16T11:37:43;4.30;;;3.63;;
4313;SDS011;2170;48.794;9.182;2023-03-16T11:40:22;6.30;;;3.57;;
4313;SDS011;2170;48.794;9.182;2023-03-16T11:42:58;4.13;;;3.07;;
4313;SDS011;2170;48.794;9.182;2023-03-16T11:45:46;5.07;;;4.50;;
4313;SDS011;2170;48.794;9.182;2023-03-16T11:48:23;3.97;;;3.57;;
4313;SDS011;2170;48.794;9.182;2023-03-16T11:51:07;4.63;;;4.23;;
4313;SDS011;2170;48.794;9.182;2023-03-16T11:53:45;4.50;;;4.07;;
4313;SDS011;2170;48.794;9.182;2023-03-16T11:56:27;3.80;;;3.40;;
4313;SDS011;2170;48.794;9.182;2023-03-16T12:02:06;3.97;;;3.57;;
4313;SDS011;2170;48.794;9.182;2023-03-16T12:04:43;3.83;;;3.53;;
4313;SDS011;2170;48.794;9.182;2023-03-16T12:07:19;4.23;;;3.83;;
4313;SDS011;2170;48.794;9.182;2023-03-16T12:10:07;7.37;;;6.67;;
4313;SDS011;2170;48.794;9.182;2023-03-16T12:12:47;4.13;;;3.83;;
4313;SDS011;2170;48.794;9.182;2023-03-16T12:15:29;9.07;;;3.87;;
4313;SDS011;2170;48.794;9.182;2023-03-16T12:18:14;4.00;;;3.73;;
4313;SDS011;2170;48.794;9.182;2023-03-16T12:20:46;3.90;;;3.60;;
4313;SDS011;2170;48.794;9.182;2023-03-16T12:23:17;7.10;;;3.50;;
4313;SDS011;2170;48.794;9.182;2023-03-16T12:25:48;3.53;;;3.30;;
4313;SDS011;2170;48.794;9.182;2023-03-16T12:28:20;5.40;;;3.90;;
4313;SDS011;2170;48.794;9.182;2023-03-16T12:30:52;4.37;;;3.80;;
4313;SDS011;2170;48.794;9.182;2023-03-16T12:33:32;4.60;;;4.20;;
4313;SDS011;2170;48.794;9.182;2023-03-16T12:36:05;16.27;;;13.90;;
4313;SDS011;2170;48.794;9.182;2023-03-16T12:38:36;5.80;;;4.50;;
4313;SDS011;2170;48.794;9.182;2023-03-16T12:41:13;3.73;;;3.43;;
4313;SDS011;2170;48.794;9.182;2023-03-16T12:43:53;4.27;;;3.87;;
4313;SDS011;2170;48.794;9.182;2023-03-16T12:46:27;4.40;;;4.00;;
4313;SDS011;2170;48.794;9.182;2023-03-16T12:48:58;3.63;;;3.30;;
4313;SDS011;2170;48.794;9.182;2023-03-16T12:51:32;4.33;;;3.90;;
4313;SDS011;2170;48.794;9.182;2023-03-16T12:56:58;4.90;;;3.80;;
4313;SDS011;2170;48.794;9.182;2023-03-16T13:02:33;3.27;;;2.97;;
4313;SDS011;2170;48.794;9.182;2023-03-16T13:08:02;6.10;;;4.27;;
4313;SDS011;2170;48.794;9.182;2023-03-16T13:10:32;12.27;;;11.00;;
4313;SDS011;2170;48.794;9.182;2023-03-16T13:16:04;4.30;;;3.90;;
4313;SDS011;2170;48.794;9.182;2023-03-16T13:18:34;7.80;;;4.50;;
4313;SDS011;2170;48.794;9.182;2023-03-16T13:21:12;5.20;;;4.10;;
4313;SDS011;2170;48.794;9.182;2023-03-16T13:23:46;5.27;;;3.80;;
4313;SDS011;2170;48.794;9.182;2023-03-16T13:26:22;4.57;;;4.00;;
4313;SDS011;2170;48.794;9.182;2023-03-16T13:28:55;5.13;;;4.37;;
4313;SDS011;2170;48.794;9.182;2023-03-16T13:31:31;4.93;;;4.20;;
4313;SDS011;2170;48.794;9.182;2023-03-16T13:34:25;5.50;;;4.33;;
4313;SDS011;2170;48.794;9.182;2023-03-16T13:36:59;8.03;;;7.30;;
4313;SDS011;2170;48.794;9.182;2023-03-16T13:39:28;4.00;;;3.60;;
4313;SDS011;2170;48.794;9.182;2023-03-16T13:42:00;4.30;;;3.90;;
4313;SDS011;2170;48.794;9.182;2023-03-16T13:44:37;4.13;;;3.73;;
4313;SDS011;2170;48.794;9.182;2023-03-16T13:47:12;4.30;;;3.90;;
4313;SDS011;2170;48.794;9.182;2023-03-16T13:49:42;15.37;;;13.80;;
4313;SDS011;2170;48.794;9.182;2023-03-16T13:52:17;4.80;;;4.37;;
4313;SDS011;2170;48.794;9.182;2023-03-16T13:54:59;4.07;;;3.67;;
4313;SDS011;2170;48.794;9.182;2023-03-16T13:57:41;3.83;;;3.43;;
4313;SDS011;2170;48.794;9.182;2023-03-16T14:00:13;13.23;;;11.97;;
4313;SDS011;2170;48.794;9.182;2023-03-16T14:02:46;5.67;;;3.27;;
4313;SDS011;2170;48.794;9.182;2023-03-16T14:05:16;5.57;;;4.27;;
4313;SDS011;2170;48.794;9.182;2023-03-16T14:07:51;4.33;;;3.70;;
4313;SDS011;2170;48.794;9.182;2023-03-16T14:10:30;4.03;;;3.70;;
4313;SDS011;2170;48.794;9.182;2023-03-16T14:13:07;5.57;;;3.77;;
4313;SDS011;2170;48.794;9.182;2023-03-16T14:15:41;3.77;;;3.47;;
4313;SDS011;2170;48.794;9.182;2023-03-16T14:18:15;4.40;;;3.30;;
4313;SDS011;2170;48.794;9.182;2023-03-16T14:20:50;3.83;;;3.60;;
4313;SDS011;2170;48.794;9.182;2023-03-16T14:23:28;4.03;;;3.53;;
4313;SDS011;2170;48.794;9.182;2023-03-16T14:26:02;4.10;;;3.53;;
4313;SDS011;2170;48.794;9.182;2023-03-16T14:28:34;4.20;;;3.63;;
4313;SDS011;2170;48.794;9.182;2023-03-16T14:31:11;4.50;;;4.10;;
4313;SDS011;2170;48.794;9.182;2023-03-16T14:33:58;3.80;;;3.40;;
4313;SDS011;2170;48.794;9.182;2023-03-16T14:36:33;3.77;;;3.27;;
4313;SDS011;2170;48.794;9.182;2023-03-16T14:39:18;4.37;;;3.90;;
4313;SDS011;2170;48.794;9.182;2023-03-16T14:42:00;6.93;;;6.10;;
4313;SDS011;2170;48.794;9.182;2023-03-16T14:44:34;3.60;;;3.27;;
4313;SDS011;2170;48.794;9.182;2023-03-16T14:47:07;6.20;;;3.50;;
4313;SDS011;2170;48.794;9.182;2023-03-16T14:49:54;3.67;;;3.37;;
4313;SDS011;2170;48.794;9.182;2023-03-16T14:52:36;3.73;;;3.43;;
4313;SDS011;2170;48.794;9.182;2023-03-16T14:55:16;4.37;;;3.97;;
4313;SDS011;2170;48.794;9.182;2023-03-16T14:57:45;4.03;;;3.73;;
4313;SDS011;2170;48.794;9.182;2023-03-16T15:00:18;3.80;;;2.93;;
4313;SDS011;2170;48.794;9.182;2023-03-16T15:02:58;4.13;;;3.50;;
4313;SDS011;2170;48.794;9.182;2023-03-16T15:05:33;7.07;;;3.27;;
4313;SDS011;2170;48.794;9.182;2023-03-16T15:08:11;2.77;;;2.57;;
4313;SDS011;2170;48.794;9.182;2023-03-16T15:10:47;4.87;;;3.70;;
4313;SDS011;2170;48.794;9.182;2023-03-16T15:13:24;5.03;;;4.23;;
4313;SDS011;2170;48.794;9.182;2023-03-16T15:16:17;5.50;;;3.90;;
4313;SDS011;2170;48.794;9.182;2023-03-16T15:18:52;4.07;;;3.67;;
4313;SDS011;2170;48.794;9.182;2023-03-16T15:21:31;5.90;;;4.50;;
4313;SDS011;2170;48.794;9.182;2023-03-16T15:26:51;4.30;;;3.90;;
4313;SDS011;2170;48.794;9.182;2023-03-16T15:29:29;4.70;;;4.30;;
4313;SDS011;2170;48.794;9.182;2023-03-16T15:32:02;4.57;;;4.17;;
4313;SDS011;2170;48.794;9.182;2023-03-16T15:34:41;4.90;;;4.50;;
4313;SDS011;2170;48.794;9.182;2023-03-16T15:37:13;4.70;;;3.70;;
4313;SDS011;2170;48.794;9.182;2023-03-16T15:40:09;3.50;;;3.20;;
4313;SDS011;2170;48.794;9.182;2023-03-16T15:42:48;3.37;;;3.07;;
4313;SDS011;2170;48.794;9.182;2023-03-16T15:45:24;3.87;;;3.43;;
4313;SDS011;2170;48.794;9.182;2023-03-16T15:48:03;3.60;;;3.30;;
4313;SDS011;2170;48.794;9.182;2023-03-16T15:50:33;4.03;;;3.40;;
4313;SDS011;2170;48.794;9.182;2023-03-16T15:53:09;6.43;;;3.90;;
4313;SDS011;2170;48.794;9.182;2023-03-16T15:55:43;3.50;;;3.20;;
4313;SDS011;2170;48.794;9.182;2023-03-16T15:58:31;2.50;;;2.40;;
4313;SDS011;2170;48.794;9.182;2023-03-16T16:01:15;6.00;;;2.50;;
4313;SDS011;2170;48.794;9.182;2023-03-16T16:03:51;4.77;;;2.93;;
4313;SDS011;2170;48.794;9.182;2023-03-16T16:06:30;3.60;;;2.40;;
4313;SDS011;2170;48.794;9.182;2023-03-16T16:09:09;3.20;;;2.87;;
4313;SDS011;2170;48.794;9.182;2023-03-16T16:11:42;3.43;;;2.77;;
4313;SDS011;2170;48.794;9.182;2023-03-16T16:14:13;2.83;;;2.60;;
4313;SDS011;2170;48.794;9.182;2023-03-16T16:16:45;3.60;;;3.10;;
4313;SDS011;2170;48.794;9.182;2023-03-16T16:19:31;3.50;;;3.30;;
4313;SDS011;2170;48.794;9.182;2023-03-16T16:22:03;3.73;;;3.17;;
4313;SDS011;2170;48.794;9.182;2023-03-16T16:24:36;3.20;;;2.80;;
4313;SDS011;2170;48.794;9.182;2023-03-16T16:27:05;3.00;;;2.80;;
4313;SDS011;2170;48.794;9.182;2023-03-16T16:29:38;4.03;;;3.37;;
4313;SDS011;2170;48.794;9.182;2023-03-16T16:32:18;3.50;;;3.20;;
4313;SDS011;2170;48.794;9.182;2023-03-16T16:34:50;12.97;;;4.13;;